sensor_id;sensor_type;location;lat;lon;timestamp;pressure;altitude;pressure_sealevel;temperature;humidity
22580;BME280;11456;47.030;15.396;2023-02-01T00:02:05;97689.91;;;-0.58;76.56
22580;BME280;11456;47.030;15.396;2023-02-01T00:04:32;97696.31;;;-0.79;76.93
22580;BME280;11456;47.030;15.396;2023-02-01T00:06:58;97695.41;;;-0.78;76.29
22580;BME280;11456;47.030;15.396;2023-02-01T00:09:25;97690.44;;;-1.02;77.33
22580;BME280;11456;47.030;15.396;2023-02-01T00:11:51;97684.59;;;-0.58;75.75
22580;BME280;11456;47.030;15.396;2023-02-01T00:14:18;97685.53;;;-0.59;75.69
22580;BME280;11456;47.030;15.396;2023-02-01T00:16:45;97687.75;;;-0.36;73.81
22580;BME280;11456;47.030;15.396;2023-02-01T00:19:12;97682.22;;;-0.16;72.15
22580;BME280;11456;47.030;15.396;2023-02-01T00:21:39;97693.47;;;-0.59;74.03
22580;BME280;11456;47.030;15.396;2023-02-01T00:24:05;97694.66;;;-0.98;77.00
22580;BME280;11456;47.030;15.396;2023-02-01T00:26:36;97701.56;;;-0.95;77.62
22580;BME280;11456;47.030;15.396;2023-02-01T00:29:04;97698.84;;;-0.94;77.10
22580;BME280;11456;47.030;15.396;2023-02-01T00:31:31;97695.63;;;-0.83;77.48
22580;BME280;11456;47.030;15.396;2023-02-01T00:33:57;97707.44;;;-1.23;78.81
22580;BME280;11456;47.030;15.396;2023-02-01T00:36:24;97701.34;;;-1.08;78.43
22580;BME280;11456;47.030;15.396;2023-02-01T00:38:50;97710.53;;;-1.32;79.48
22580;BME280;11456;47.030;15.396;2023-02-01T00:41:18;97701.69;;;-1.31;80.21
22580;BME280;11456;47.030;15.396;2023-02-01T00:43:45;97705.56;;;-1.21;78.81
22580;BME280;11456;47.030;15.396;2023-02-01T00:46:12;97707.50;;;-1.07;78.87
22580;BME280;11456;47.030;15.396;2023-02-01T00:48:39;97706.50;;;-1.05;78.65
22580;BME280;11456;47.030;15.396;2023-02-01T00:51:07;97706.88;;;-1.12;78.89
22580;BME280;11456;47.030;15.396;2023-02-01T00:53:34;97710.06;;;-1.57;80.82
22580;BME280;11456;47.030;15.396;2023-02-01T00:56:00;97711.03;;;-1.41;80.43
22580;BME280;11456;47.030;15.396;2023-02-01T00:58:27;97711.56;;;-1.35;80.12
22580;BME280;11456;47.030;15.396;2023-02-01T01:03:37;97706.19;;;-1.33;80.45
22580;BME280;11456;47.030;15.396;2023-02-01T01:06:05;97702.94;;;-1.38;80.09
22580;BME280;11456;47.030;15.396;2023-02-01T01:08:32;97696.25;;;-1.45;80.12
22580;BME280;11456;47.030;15.396;2023-02-01T01:10:59;97689.50;;;-1.51;80.52
22580;BME280;11456;47.030;15.396;2023-02-01T01:13:29;97679.00;;;-1.52;80.75
22580;BME280;11456;47.030;15.396;2023-02-01T01:15:56;97679.16;;;-1.38;80.54
22580;BME280;11456;47.030;15.396;2023-02-01T01:18:22;97669.59;;;-1.24;79.73
22580;BME280;11456;47.030;15.396;2023-02-01T01:20:49;97659.09;;;-1.25;79.16
22580;BME280;11456;47.030;15.396;2023-02-01T01:23:15;97644.03;;;-1.23;80.08
22580;BME280;11456;47.030;15.396;2023-02-01T01:25:42;97639.94;;;-1.29;79.68
22580;BME280;11456;47.030;15.396;2023-02-01T01:28:08;97640.63;;;-1.42;79.90
22580;BME280;11456;47.030;15.396;2023-02-01T01:30:35;97618.72;;;-1.44;79.62
22580;BME280;11456;47.030;15.396;2023-02-01T01:33:02;97617.94;;;-1.46;79.08
22580;BME280;11456;47.030;15.396;2023-02-01T01:35:29;97625.09;;;-1.66;80.14
22580;BME280;11456;47.030;15.396;2023-02-01T01:37:56;97623.03;;;-1.76;81.58
22580;BME280;11456;47.030;15.396;2023-02-01T01:40:23;97631.78;;;-1.58;80.83
22580;BME280;11456;47.030;15.396;2023-02-01T01:42:50;97631.56;;;-1.71;80.76
22580;BME280;11456;47.030;15.396;2023-02-01T01:45:27;97642.81;;;-1.85;81.51
22580;BME280;11456;47.030;15.396;2023-02-01T01:48:08;97636.56;;;-1.32;79.32
22580;BME280;11456;47.030;15.396;2023-02-01T01:53:06;97635.00;;;-1.86;81.90
22580;BME280;11456;47.030;15.396;2023-02-01T01:55:35;97630.41;;;-2.00;82.85
22580;BME280;11456;47.030;15.396;2023-02-01T01:58:08;97627.53;;;-1.61;81.44
22580;BME280;11456;47.030;15.396;2023-02-01T02:00:35;97631.56;;;-1.71;81.22
22580;BME280;11456;47.030;15.396;2023-02-01T02:03:38;97638.00;;;-1.77;80.62
22580;BME280;11456;47.030;15.396;2023-02-01T02:05:57;97650.41;;;-1.79;81.25
22580;BME280;11456;47.030;15.396;2023-02-01T02:08:25;97642.66;;;-1.99;82.30
22580;BME280;11456;47.030;15.396;2023-02-01T02:10:52;97640.78;;;-1.97;82.25
22580;BME280;11456;47.030;15.396;2023-02-01T02:13:36;97661.88;;;-2.14;82.35
22580;BME280;11456;47.030;15.396;2023-02-01T02:16:05;97638.00;;;-1.94;82.11
22580;BME280;11456;47.030;15.396;2023-02-01T02:18:44;97642.66;;;-1.99;82.23
22580;BME280;11456;47.030;15.396;2023-02-01T02:21:29;97643.75;;;-1.86;81.90
22580;BME280;11456;47.030;15.396;2023-02-01T02:26:42;97642.78;;;-2.02;83.82
22580;BME280;11456;47.030;15.396;2023-02-01T02:34:39;97617.97;;;-1.81;81.56
22580;BME280;11456;47.030;15.396;2023-02-01T02:42:14;97608.06;;;-1.93;82.54
22580;BME280;11456;47.030;15.396;2023-02-01T02:45:08;97606.50;;;-1.80;82.69
22580;BME280;11456;47.030;15.396;2023-02-01T02:53:22;97618.75;;;-1.79;81.27
22580;BME280;11456;47.030;15.396;2023-02-01T02:56:09;97621.94;;;-1.89;82.10
22580;BME280;11456;47.030;15.396;2023-02-01T02:58:56;97637.53;;;-2.02;82.34
22580;BME280;11456;47.030;15.396;2023-02-01T03:01:43;97624.88;;;-2.13;83.15
22580;BME280;11456;47.030;15.396;2023-02-01T03:04:28;97610.81;;;-2.13;83.89
22580;BME280;11456;47.030;15.396;2023-02-01T03:06:55;97598.72;;;-2.00;83.79
22580;BME280;11456;47.030;15.396;2023-02-01T03:11:48;97598.88;;;-2.03;82.93
22580;BME280;11456;47.030;15.396;2023-02-01T03:14:35;97607.72;;;-2.04;83.74
22580;BME280;11456;47.030;15.396;2023-02-01T03:17:05;97606.78;;;-2.20;83.45
22580;BME280;11456;47.030;15.396;2023-02-01T03:19:35;97594.94;;;-2.30;84.43
22580;BME280;11456;47.030;15.396;2023-02-01T03:22:06;97597.53;;;-2.29;84.51
22580;BME280;11456;47.030;15.396;2023-02-01T03:24:57;97599.94;;;-2.24;84.20
22580;BME280;11456;47.030;15.396;2023-02-01T03:27:22;97607.06;;;-2.26;84.72
22580;BME280;11456;47.030;15.396;2023-02-01T03:29:59;97606.47;;;-2.14;84.11
22580;BME280;11456;47.030;15.396;2023-02-01T03:32:28;97601.50;;;-2.20;84.31
22580;BME280;11456;47.030;15.396;2023-02-01T03:34:54;97601.03;;;-2.11;83.57
22580;BME280;11456;47.030;15.396;2023-02-01T03:37:23;97594.50;;;-2.21;84.46
22580;BME280;11456;47.030;15.396;2023-02-01T03:40:00;97605.38;;;-2.27;84.52
22580;BME280;11456;47.030;15.396;2023-02-01T03:42:35;97600.69;;;-2.39;85.87
22580;BME280;11456;47.030;15.396;2023-02-01T03:47:43;97606.66;;;-2.00;84.15
22580;BME280;11456;47.030;15.396;2023-02-01T03:50:12;97612.69;;;-1.98;84.21
22580;BME280;11456;47.030;15.396;2023-02-01T03:52:43;97622.00;;;-2.08;84.57
22580;BME280;11456;47.030;15.396;2023-02-01T03:55:13;97628.19;;;-2.09;84.54
22580;BME280;11456;47.030;15.396;2023-02-01T03:57:43;97621.38;;;-2.13;84.88
22580;BME280;11456;47.030;15.396;2023-02-01T04:00:17;97638.88;;;-1.93;84.35
22580;BME280;11456;47.030;15.396;2023-02-01T04:02:44;97639.06;;;-1.98;82.96
22580;BME280;11456;47.030;15.396;2023-02-01T04:05:11;97631.31;;;-1.49;81.37
22580;BME280;11456;47.030;15.396;2023-02-01T04:07:43;97643.91;;;-1.89;82.10
22580;BME280;11456;47.030;15.396;2023-02-01T04:10:10;97634.34;;;-1.91;83.47
22580;BME280;11456;47.030;15.396;2023-02-01T04:12:37;97640.34;;;-1.88;82.79
22580;BME280;11456;47.030;15.396;2023-02-01T04:15:04;97628.66;;;-1.32;79.71
22580;BME280;11456;47.030;15.396;2023-02-01T04:17:30;97630.00;;;-1.75;81.46
22580;BME280;11456;47.030;15.396;2023-02-01T04:19:57;97637.34;;;-2.16;83.23
22580;BME280;11456;47.030;15.396;2023-02-01T04:22:23;97634.25;;;-2.07;84.31
22580;BME280;11456;47.030;15.396;2023-02-01T04:24:50;97636.28;;;-2.12;83.93
22580;BME280;11456;47.030;15.396;2023-02-01T04:27:16;97632.63;;;-2.46;85.61
22580;BME280;11456;47.030;15.396;2023-02-01T04:29:43;97637.06;;;-2.46;86.55
22580;BME280;11456;47.030;15.396;2023-02-01T04:32:11;97654.25;;;-2.20;85.42
22580;BME280;11456;47.030;15.396;2023-02-01T04:34:37;97630.25;;;-1.63;83.19
22580;BME280;11456;47.030;15.396;2023-02-01T04:37:04;97624.63;;;-1.91;82.17
22580;BME280;11456;47.030;15.396;2023-02-01T04:39:30;97643.72;;;-2.20;83.62
22580;BME280;11456;47.030;15.396;2023-02-01T04:41:57;97641.69;;;-2.15;84.44
22580;BME280;11456;47.030;15.396;2023-02-01T04:44:23;97621.53;;;-1.47;81.27
22580;BME280;11456;47.030;15.396;2023-02-01T04:46:50;97628.53;;;-1.64;81.61
22580;BME280;11456;47.030;15.396;2023-02-01T04:49:17;97647.69;;;-2.12;83.10
22580;BME280;11456;47.030;15.396;2023-02-01T04:51:43;97632.22;;;-1.33;80.99
22580;BME280;11456;47.030;15.396;2023-02-01T04:54:10;97624.78;;;-1.42;78.97
22580;BME280;11456;47.030;15.396;2023-02-01T04:56:40;97640.47;;;-1.91;81.12
22580;BME280;11456;47.030;15.396;2023-02-01T04:59:06;97624.94;;;-1.97;82.66
22580;BME280;11456;47.030;15.396;2023-02-01T05:01:33;97615.19;;;-2.12;84.26
22580;BME280;11456;47.030;15.396;2023-02-01T05:03:59;97620.59;;;-1.98;83.71
22580;BME280;11456;47.030;15.396;2023-02-01T05:06:26;97611.31;;;-2.05;83.97
22580;BME280;11456;47.030;15.396;2023-02-01T05:08:54;97613.88;;;-1.19;80.00
22580;BME280;11456;47.030;15.396;2023-02-01T05:11:20;97616.38;;;-1.33;79.44
22580;BME280;11456;47.030;15.396;2023-02-01T05:14:05;97634.41;;;-2.10;81.96
22580;BME280;11456;47.030;15.396;2023-02-01T05:16:32;97635.31;;;-2.28;83.79
22580;BME280;11456;47.030;15.396;2023-02-01T05:18:58;97628.31;;;-2.29;84.81
22580;BME280;11456;47.030;15.396;2023-02-01T05:21:25;97638.25;;;-2.17;84.96
22580;BME280;11456;47.030;15.396;2023-02-01T05:23:52;97636.06;;;-2.44;85.54
22580;BME280;11456;47.030;15.396;2023-02-01T05:26:39;97639.03;;;-2.32;86.00
22580;BME280;11456;47.030;15.396;2023-02-01T05:29:07;97630.22;;;-2.14;85.51
22580;BME280;11456;47.030;15.396;2023-02-01T05:31:34;97628.81;;;-2.04;84.88
22580;BME280;11456;47.030;15.396;2023-02-01T05:34:00;97641.84;;;-2.18;84.48
22580;BME280;11456;47.030;15.396;2023-02-01T05:36:27;97635.63;;;-2.17;84.49
22580;BME280;11456;47.030;15.396;2023-02-01T05:38:53;97631.97;;;-1.62;81.78
22580;BME280;11456;47.030;15.396;2023-02-01T05:41:20;97650.44;;;-2.32;82.86
22580;BME280;11456;47.030;15.396;2023-02-01T05:43:47;97641.59;;;-2.31;84.28
22580;BME280;11456;47.030;15.396;2023-02-01T05:46:13;97640.56;;;-2.28;84.98
22580;BME280;11456;47.030;15.396;2023-02-01T05:48:40;97632.97;;;-1.98;83.22
22580;BME280;11456;47.030;15.396;2023-02-01T05:51:07;97645.53;;;-2.39;84.18
22580;BME280;11456;47.030;15.396;2023-02-01T05:53:33;97638.69;;;-2.44;84.36
22580;BME280;11456;47.030;15.396;2023-02-01T05:56:00;97641.34;;;-2.44;85.12
22580;BME280;11456;47.030;15.396;2023-02-01T05:58:27;97644.09;;;-2.47;85.00
22580;BME280;11456;47.030;15.396;2023-02-01T06:00:53;97647.81;;;-2.51;85.44
22580;BME280;11456;47.030;15.396;2023-02-01T06:03:19;97642.59;;;-2.33;84.86
22580;BME280;11456;47.030;15.396;2023-02-01T06:05:47;97647.56;;;-2.27;85.05
22580;BME280;11456;47.030;15.396;2023-02-01T06:08:14;97650.00;;;-2.42;84.21
22580;BME280;11456;47.030;15.396;2023-02-01T06:10:40;97655.44;;;-2.45;84.87
22580;BME280;11456;47.030;15.396;2023-02-01T06:13:07;97654.03;;;-2.52;84.45
22580;BME280;11456;47.030;15.396;2023-02-01T06:15:33;97646.16;;;-2.34;84.85
22580;BME280;11456;47.030;15.396;2023-02-01T06:18:00;97650.94;;;-2.43;84.64
22580;BME280;11456;47.030;15.396;2023-02-01T06:20:27;97650.63;;;-2.36;84.16
22580;BME280;11456;47.030;15.396;2023-02-01T06:22:53;97641.19;;;-2.23;84.18
22580;BME280;11456;47.030;15.396;2023-02-01T06:25:20;97642.28;;;-2.27;83.84
22580;BME280;11456;47.030;15.396;2023-02-01T06:27:47;97644.13;;;-2.29;83.77
22580;BME280;11456;47.030;15.396;2023-02-01T06:30:14;97644.94;;;-2.27;83.64
22580;BME280;11456;47.030;15.396;2023-02-01T06:32:42;97645.41;;;-2.19;83.89
22580;BME280;11456;47.030;15.396;2023-02-01T06:35:09;97649.00;;;-2.03;84.37
22580;BME280;11456;47.030;15.396;2023-02-01T06:37:42;97653.34;;;-2.19;83.95
22580;BME280;11456;47.030;15.396;2023-02-01T06:40:09;97670.19;;;-2.05;84.45
22580;BME280;11456;47.030;15.396;2023-02-01T06:42:36;97644.97;;;-1.24;82.15
22580;BME280;11456;47.030;15.396;2023-02-01T06:45:02;97657.94;;;-0.87;81.88
22580;BME280;11456;47.030;15.396;2023-02-01T06:47:29;97667.31;;;-0.97;79.09
22580;BME280;11456;47.030;15.396;2023-02-01T06:49:56;97675.94;;;-1.10;80.69
22580;BME280;11456;47.030;15.396;2023-02-01T06:52:22;97667.72;;;-0.40;77.14
22580;BME280;11456;47.030;15.396;2023-02-01T06:54:48;97682.66;;;-0.08;77.80
22580;BME280;11456;47.030;15.396;2023-02-01T06:57:15;97675.25;;;0.29;76.09
22580;BME280;11456;47.030;15.396;2023-02-01T06:59:41;97677.59;;;-0.12;75.77
22580;BME280;11456;47.030;15.396;2023-02-01T07:02:09;97680.84;;;0.09;77.66
22580;BME280;11456;47.030;15.396;2023-02-01T07:04:36;97682.38;;;0.13;75.83
22580;BME280;11456;47.030;15.396;2023-02-01T07:07:03;97677.00;;;-0.02;76.31
22580;BME280;11456;47.030;15.396;2023-02-01T07:09:30;97675.91;;;0.32;77.18
22580;BME280;11456;47.030;15.396;2023-02-01T07:11:56;97671.44;;;1.35;74.36
22580;BME280;11456;47.030;15.396;2023-02-01T07:14:23;97677.53;;;1.23;74.78
22580;BME280;11456;47.030;15.396;2023-02-01T07:16:49;97681.19;;;1.77;74.07
22580;BME280;11456;47.030;15.396;2023-02-01T07:19:17;97668.75;;;1.78;72.98
22580;BME280;11456;47.030;15.396;2023-02-01T07:21:43;97659.13;;;2.30;71.56
22580;BME280;11456;47.030;15.396;2023-02-01T07:24:09;97656.94;;;2.50;71.00
22580;BME280;11456;47.030;15.396;2023-02-01T07:26:36;97647.09;;;3.28;70.73
22580;BME280;11456;47.030;15.396;2023-02-01T07:29:02;97649.22;;;3.84;67.44
22580;BME280;11456;47.030;15.396;2023-02-01T07:31:29;97642.41;;;4.17;67.01
22580;BME280;11456;47.030;15.396;2023-02-01T07:33:56;97648.97;;;4.82;64.09
22580;BME280;11456;47.030;15.396;2023-02-01T07:36:24;97644.78;;;4.67;62.74
22580;BME280;11456;47.030;15.396;2023-02-01T07:38:50;97647.88;;;5.64;60.84
22580;BME280;11456;47.030;15.396;2023-02-01T07:41:21;97652.59;;;5.72;59.73
22580;BME280;11456;47.030;15.396;2023-02-01T07:43:48;97666.09;;;5.82;58.44
22580;BME280;11456;47.030;15.396;2023-02-01T07:46:16;97669.69;;;5.14;58.54
22580;BME280;11456;47.030;15.396;2023-02-01T07:48:43;97656.00;;;6.51;55.32
22580;BME280;11456;47.030;15.396;2023-02-01T07:51:11;97659.31;;;6.43;55.72
22580;BME280;11456;47.030;15.396;2023-02-01T07:53:37;97663.53;;;6.02;54.00
22580;BME280;11456;47.030;15.396;2023-02-01T07:56:08;97664.00;;;5.52;55.94
22580;BME280;11456;47.030;15.396;2023-02-01T07:58:36;97671.66;;;6.12;55.20
22580;BME280;11456;47.030;15.396;2023-02-01T08:01:02;97673.00;;;7.64;52.43
22580;BME280;11456;47.030;15.396;2023-02-01T08:03:58;97667.09;;;8.60;49.14
22580;BME280;11456;47.030;15.396;2023-02-01T08:06:26;97665.84;;;8.55;48.34
22580;BME280;11456;47.030;15.396;2023-02-01T08:08:53;97677.31;;;8.17;47.27
22580;BME280;11456;47.030;15.396;2023-02-01T08:11:20;97680.88;;;9.61;46.05
22580;BME280;11456;47.030;15.396;2023-02-01T08:13:47;97670.75;;;9.46;45.35
22580;BME280;11456;47.030;15.396;2023-02-01T08:16:15;97677.97;;;9.26;45.14
22580;BME280;11456;47.030;15.396;2023-02-01T08:18:42;97676.84;;;9.38;43.94
22580;BME280;11456;47.030;15.396;2023-02-01T08:21:10;97668.66;;;8.72;46.53
22580;BME280;11456;47.030;15.396;2023-02-01T08:23:37;97676.00;;;9.84;44.35
22580;BME280;11456;47.030;15.396;2023-02-01T08:28:37;97658.00;;;10.12;43.05
22580;BME280;11456;47.030;15.396;2023-02-01T08:31:04;97658.22;;;10.01;42.85
22580;BME280;11456;47.030;15.396;2023-02-01T08:33:31;97668.38;;;10.17;42.74
22580;BME280;11456;47.030;15.396;2023-02-01T08:35:59;97662.97;;;9.33;42.76
22580;BME280;11456;47.030;15.396;2023-02-01T08:38:26;97659.16;;;8.39;43.54
22580;BME280;11456;47.030;15.396;2023-02-01T08:40:52;97646.50;;;8.51;42.36
22580;BME280;11456;47.030;15.396;2023-02-01T08:43:19;97652.84;;;9.64;42.31
22580;BME280;11456;47.030;15.396;2023-02-01T08:45:45;97647.63;;;10.27;42.99
22580;BME280;11456;47.030;15.396;2023-02-01T08:48:12;97652.34;;;10.15;42.22
22580;BME280;11456;47.030;15.396;2023-02-01T08:50:39;97640.94;;;10.31;42.24
22580;BME280;11456;47.030;15.396;2023-02-01T08:53:05;97653.50;;;9.29;42.52
22580;BME280;11456;47.030;15.396;2023-02-01T08:55:32;97648.91;;;9.58;41.92
22580;BME280;11456;47.030;15.396;2023-02-01T08:57:58;97641.25;;;9.63;41.86
22580;BME280;11456;47.030;15.396;2023-02-01T09:00:25;97637.72;;;9.07;44.16
22580;BME280;11456;47.030;15.396;2023-02-01T09:02:51;97638.47;;;8.21;44.37
22580;BME280;11456;47.030;15.396;2023-02-01T09:05:18;97643.34;;;8.36;44.75
22580;BME280;11456;47.030;15.396;2023-02-01T09:07:48;97645.47;;;8.71;43.44
22580;BME280;11456;47.030;15.396;2023-02-01T09:10:15;97646.09;;;9.50;45.04
22580;BME280;11456;47.030;15.396;2023-02-01T09:12:46;97635.91;;;10.63;41.06
22580;BME280;11456;47.030;15.396;2023-02-01T09:15:12;97630.47;;;9.27;44.58
22580;BME280;11456;47.030;15.396;2023-02-01T09:17:39;97633.16;;;9.17;42.58
22580;BME280;11456;47.030;15.396;2023-02-01T09:20:08;97634.31;;;9.14;43.92
22580;BME280;11456;47.030;15.396;2023-02-01T09:22:35;97629.56;;;9.36;42.92
22580;BME280;11456;47.030;15.396;2023-02-01T09:25:01;97629.91;;;9.04;45.02
22580;BME280;11456;47.030;15.396;2023-02-01T09:27:28;97628.94;;;8.37;45.72
22580;BME280;11456;47.030;15.396;2023-02-01T09:29:54;97626.53;;;7.94;45.73
22580;BME280;11456;47.030;15.396;2023-02-01T09:32:21;97624.94;;;9.28;43.27
22580;BME280;11456;47.030;15.396;2023-02-01T09:34:49;97634.28;;;10.53;39.42
22580;BME280;11456;47.030;15.396;2023-02-01T09:37:16;97626.06;;;10.36;39.82
22580;BME280;11456;47.030;15.396;2023-02-01T09:39:42;97627.13;;;10.43;41.59
22580;BME280;11456;47.030;15.396;2023-02-01T09:44:52;97623.41;;;10.27;43.30
22580;BME280;11456;47.030;15.396;2023-02-01T09:47:22;97611.50;;;10.02;43.37
22580;BME280;11456;47.030;15.396;2023-02-01T09:52:25;97599.38;;;10.16;44.30
22580;BME280;11456;47.030;15.396;2023-02-01T09:54:55;97607.06;;;10.91;42.41
22580;BME280;11456;47.030;15.396;2023-02-01T09:57:48;97600.91;;;10.81;41.55
22580;BME280;11456;47.030;15.396;2023-02-01T10:00:25;97599.06;;;11.25;42.04
22580;BME280;11456;47.030;15.396;2023-02-01T10:02:53;97585.75;;;11.75;41.20
22580;BME280;11456;47.030;15.396;2023-02-01T10:08:10;97565.03;;;10.63;44.55
22580;BME280;11456;47.030;15.396;2023-02-01T10:10:49;97563.09;;;11.42;44.67
22580;BME280;11456;47.030;15.396;2023-02-01T10:13:23;97577.88;;;11.90;42.41
22580;BME280;11456;47.030;15.396;2023-02-01T10:16:14;97569.41;;;11.51;41.57
22580;BME280;11456;47.030;15.396;2023-02-01T10:21:14;97564.38;;;12.40;39.69
22580;BME280;11456;47.030;15.396;2023-02-01T10:26:44;97548.53;;;14.20;37.39
22580;BME280;11456;47.030;15.396;2023-02-01T10:29:15;97545.28;;;14.56;38.23
22580;BME280;11456;47.030;15.396;2023-02-01T10:31:42;97544.84;;;14.13;35.59
22580;BME280;11456;47.030;15.396;2023-02-01T10:36:44;97526.47;;;11.99;38.34
22580;BME280;11456;47.030;15.396;2023-02-01T10:39:12;97525.34;;;12.42;38.85
22580;BME280;11456;47.030;15.396;2023-02-01T10:41:40;97521.13;;;12.24;40.25
22580;BME280;11456;47.030;15.396;2023-02-01T10:44:14;97524.19;;;13.02;38.52
22580;BME280;11456;47.030;15.396;2023-02-01T10:46:42;97511.34;;;12.55;38.71
22580;BME280;11456;47.030;15.396;2023-02-01T10:49:12;97507.22;;;13.48;36.07
22580;BME280;11456;47.030;15.396;2023-02-01T10:51:45;97498.84;;;14.05;34.18
22580;BME280;11456;47.030;15.396;2023-02-01T10:54:17;97492.88;;;14.40;34.02
22580;BME280;11456;47.030;15.396;2023-02-01T10:56:47;97491.19;;;14.09;34.01
22580;BME280;11456;47.030;15.396;2023-02-01T10:59:14;97488.88;;;14.28;33.98
22580;BME280;11456;47.030;15.396;2023-02-01T11:01:42;97496.81;;;14.07;34.54
22580;BME280;11456;47.030;15.396;2023-02-01T11:04:12;97492.38;;;15.20;32.61
22580;BME280;11456;47.030;15.396;2023-02-01T11:06:40;97481.09;;;14.33;33.81
22580;BME280;11456;47.030;15.396;2023-02-01T11:11:52;97489.22;;;13.63;35.52
22580;BME280;11456;47.030;15.396;2023-02-01T11:16:57;97476.88;;;14.54;34.99
22580;BME280;11456;47.030;15.396;2023-02-01T11:19:24;97477.59;;;15.08;33.27
22580;BME280;11456;47.030;15.396;2023-02-01T11:21:51;97466.63;;;14.64;34.21
22580;BME280;11456;47.030;15.396;2023-02-01T11:26:47;97443.81;;;14.96;33.48
22580;BME280;11456;47.030;15.396;2023-02-01T11:29:14;97433.66;;;14.37;35.13
22580;BME280;11456;47.030;15.396;2023-02-01T11:31:44;97436.66;;;13.58;36.16
22580;BME280;11456;47.030;15.396;2023-02-01T11:34:15;97411.03;;;14.68;35.46
22580;BME280;11456;47.030;15.396;2023-02-01T11:36:42;97419.56;;;14.94;34.02
22580;BME280;11456;47.030;15.396;2023-02-01T11:41:42;97394.06;;;15.03;33.99
22580;BME280;11456;47.030;15.396;2023-02-01T11:44:22;97389.56;;;15.90;33.28
22580;BME280;11456;47.030;15.396;2023-02-01T11:46:49;97399.03;;;16.16;33.06
22580;BME280;11456;47.030;15.396;2023-02-01T11:49:23;97406.13;;;16.59;32.49
22580;BME280;11456;47.030;15.396;2023-02-01T11:54:33;97388.50;;;15.70;30.37
22580;BME280;11456;47.030;15.396;2023-02-01T11:57:07;97379.56;;;15.11;32.23
22580;BME280;11456;47.030;15.396;2023-02-01T11:59:47;97390.00;;;15.94;30.10
22580;BME280;11456;47.030;15.396;2023-02-01T12:02:39;97376.47;;;17.20;27.40
22580;BME280;11456;47.030;15.396;2023-02-01T12:05:14;97367.72;;;16.97;27.10
22580;BME280;11456;47.030;15.396;2023-02-01T12:15:52;97362.84;;;16.86;25.47
22580;BME280;11456;47.030;15.396;2023-02-01T12:21:18;97344.63;;;18.42;23.98
22580;BME280;11456;47.030;15.396;2023-02-01T12:24:08;97361.94;;;18.01;24.67
22580;BME280;11456;47.030;15.396;2023-02-01T12:26:46;97362.59;;;17.08;23.40
22580;BME280;11456;47.030;15.396;2023-02-01T12:34:54;97364.91;;;16.83;23.48
22580;BME280;11456;47.030;15.396;2023-02-01T12:37:47;97379.88;;;17.70;24.20
22580;BME280;11456;47.030;15.396;2023-02-01T12:40:26;97391.59;;;17.29;23.90
22580;BME280;11456;47.030;15.396;2023-02-01T12:43:01;97372.44;;;15.54;23.86
22580;BME280;11456;47.030;15.396;2023-02-01T12:45:31;97381.56;;;16.25;24.17
22580;BME280;11456;47.030;15.396;2023-02-01T12:48:03;97365.09;;;17.10;23.33
22580;BME280;11456;47.030;15.396;2023-02-01T12:51:06;97381.41;;;17.44;23.97
22580;BME280;11456;47.030;15.396;2023-02-01T12:53:50;97378.31;;;16.36;24.68
22580;BME280;11456;47.030;15.396;2023-02-01T12:56:16;97362.50;;;16.95;22.87
22580;BME280;11456;47.030;15.396;2023-02-01T12:58:49;97377.13;;;16.45;23.15
22580;BME280;11456;47.030;15.396;2023-02-01T13:01:20;97376.78;;;16.06;24.02
22580;BME280;11456;47.030;15.396;2023-02-01T13:03:55;97376.59;;;16.77;23.16
22580;BME280;11456;47.030;15.396;2023-02-01T13:06:25;97380.38;;;17.11;22.22
22580;BME280;11456;47.030;15.396;2023-02-01T13:08:56;97354.19;;;17.44;22.52
22580;BME280;11456;47.030;15.396;2023-02-01T13:11:39;97396.84;;;16.96;23.00
22580;BME280;11456;47.030;15.396;2023-02-01T13:16:52;97385.16;;;15.68;23.78
22580;BME280;11456;47.030;15.396;2023-02-01T13:19:24;97391.78;;;15.80;23.50
22580;BME280;11456;47.030;15.396;2023-02-01T13:21:55;97404.78;;;16.98;23.49
22580;BME280;11456;47.030;15.396;2023-02-01T13:24:26;97373.34;;;16.89;21.83
22580;BME280;11456;47.030;15.396;2023-02-01T13:26:54;97398.31;;;16.28;23.49
22580;BME280;11456;47.030;15.396;2023-02-01T13:29:22;97389.13;;;15.87;24.56
22580;BME280;11456;47.030;15.396;2023-02-01T13:31:57;97390.69;;;15.60;24.37
22580;BME280;11456;47.030;15.396;2023-02-01T13:42:16;97400.44;;;15.54;25.02
22580;BME280;11456;47.030;15.396;2023-02-01T13:45:16;97392.47;;;14.94;24.79
22580;BME280;11456;47.030;15.396;2023-02-01T13:47:32;97409.47;;;15.17;25.71
22580;BME280;11456;47.030;15.396;2023-02-01T13:50:02;97400.88;;;14.99;24.91
22580;BME280;11456;47.030;15.396;2023-02-01T13:52:42;97399.78;;;15.08;24.58
22580;BME280;11456;47.030;15.396;2023-02-01T13:57:47;97392.78;;;15.79;25.52
22580;BME280;11456;47.030;15.396;2023-02-01T14:00:31;97414.66;;;16.14;25.49
22580;BME280;11456;47.030;15.396;2023-02-01T14:13:25;97418.31;;;16.21;24.91
22580;BME280;11456;47.030;15.396;2023-02-01T14:16:14;97417.44;;;15.04;25.81
22580;BME280;11456;47.030;15.396;2023-02-01T14:34:14;97457.22;;;14.74;27.15
22580;BME280;11456;47.030;15.396;2023-02-01T14:36:43;97450.38;;;14.64;26.78
22580;BME280;11456;47.030;15.396;2023-02-01T14:39:20;97459.53;;;14.63;26.79
22580;BME280;11456;47.030;15.396;2023-02-01T14:41:51;97463.78;;;14.34;27.17
22580;BME280;11456;47.030;15.396;2023-02-01T14:44:29;97462.63;;;14.29;27.60
22580;BME280;11456;47.030;15.396;2023-02-01T14:47:09;97467.31;;;14.12;28.15
22580;BME280;11456;47.030;15.396;2023-02-01T14:49:42;97474.66;;;13.73;28.29
22580;BME280;11456;47.030;15.396;2023-02-01T14:52:14;97478.56;;;13.15;29.43
22580;BME280;11456;47.030;15.396;2023-02-01T14:54:42;97493.47;;;12.78;30.26
22580;BME280;11456;47.030;15.396;2023-02-01T14:57:15;97491.44;;;12.56;30.29
22580;BME280;11456;47.030;15.396;2023-02-01T14:59:44;97484.16;;;12.24;31.35
22580;BME280;11456;47.030;15.396;2023-02-01T15:02:20;97499.91;;;12.53;29.98
22580;BME280;11456;47.030;15.396;2023-02-01T15:04:47;97491.94;;;12.27;30.27